createdAt,value
2018-07-26T00:00:58.004Z,7.20
2018-07-26T00:03:26.854Z,7.43
2018-07-26T00:05:55.741Z,7.60
2018-07-26T00:08:24.634Z,7.17
2018-07-26T00:10:53.509Z,7.27
2018-07-26T00:13:33.252Z,7.20
2018-07-26T00:16:02.125Z,7.37
2018-07-26T00:18:31.092Z,7.67
2018-07-26T00:21:04.007Z,7.47
2018-07-26T00:23:32.901Z,7.60
2018-07-26T00:26:01.784Z,7.20
2018-07-26T00:28:30.652Z,7.93
2018-07-26T00:30:59.652Z,7.80
2018-07-26T00:33:28.574Z,7.50
2018-07-26T00:35:58.496Z,8.03
2018-07-26T00:38:27.375Z,7.73
2018-07-26T00:40:56.279Z,7.97
2018-07-26T00:43:25.153Z,7.80
2018-07-26T00:45:55.072Z,7.87
2018-07-26T00:48:23.964Z,8.50
2018-07-26T00:50:57.505Z,8.57
2018-07-26T00:53:26.366Z,7.93
2018-07-26T00:56:14.792Z,7.87
2018-07-26T00:58:44.377Z,8.00
2018-07-26T01:01:13.256Z,8.07
2018-07-26T01:03:42.127Z,8.83
2018-07-26T01:06:11.008Z,8.77
2018-07-26T01:08:39.912Z,8.40
2018-07-26T01:11:08.801Z,9.27
2018-07-26T01:13:37.684Z,8.60
2018-07-26T01:19:01.817Z,8.97
2018-07-26T01:21:33.937Z,9.63
2018-07-26T01:24:02.879Z,9.13
2018-07-26T01:26:31.729Z,8.60
2018-07-26T01:29:06.674Z,8.57
2018-07-26T01:31:35.580Z,9.10
2018-07-26T01:34:05.523Z,9.17
2018-07-26T01:36:34.406Z,9.67
2018-07-26T01:39:03.936Z,9.50
2018-07-26T01:41:32.865Z,9.67
2018-07-26T01:44:17.218Z,9.60
2018-07-26T01:46:51.802Z,9.17
2018-07-26T01:49:20.756Z,8.93
2018-07-26T01:51:50.708Z,9.47
2018-07-26T01:54:19.615Z,10.07
2018-07-26T01:56:48.551Z,9.77
2018-07-26T01:59:17.451Z,9.40
2018-07-26T02:01:46.395Z,9.87
2018-07-26T02:04:15.215Z,10.17
2018-07-26T02:06:44.082Z,10.30
2018-07-26T02:09:16.572Z,10.80
2018-07-26T02:11:45.505Z,10.93
2018-07-26T02:14:19.686Z,10.23
2018-07-26T02:16:50.608Z,10.97
2018-07-26T02:19:19.658Z,11.17
2018-07-26T02:24:43.756Z,11.00
2018-07-26T02:27:12.659Z,11.33
2018-07-26T02:29:41.567Z,11.77
2018-07-26T02:32:10.496Z,11.90
2018-07-26T02:34:39.355Z,11.90
2018-07-26T02:37:08.259Z,11.80
2018-07-26T02:39:37.149Z,11.43
2018-07-26T02:42:06.021Z,10.90
2018-07-26T02:44:34.912Z,10.87
2018-07-26T02:47:03.801Z,11.07
2018-07-26T02:49:32.901Z,11.43
2018-07-26T02:52:01.773Z,12.10
2018-07-26T03:00:23.560Z,11.17
2018-07-26T03:03:05.118Z,11.37
2018-07-26T03:05:34.031Z,11.33
2018-07-26T03:08:02.939Z,11.57
2018-07-26T03:10:31.809Z,11.80
2018-07-26T03:13:00.696Z,11.43
2018-07-26T03:15:33.644Z,12.43
2018-07-26T03:18:02.485Z,12.33
2018-07-26T03:20:31.489Z,11.23
2018-07-26T03:23:03.588Z,11.90
2018-07-26T03:25:32.468Z,11.23
2018-07-26T03:28:01.484Z,11.63
2018-07-26T03:30:35.942Z,11.93
2018-07-26T03:33:21.797Z,11.77
2018-07-26T03:35:58.309Z,11.13
2018-07-26T03:38:27.204Z,12.00
2018-07-26T03:43:51.609Z,13.00
2018-07-26T03:46:23.848Z,12.90
2018-07-26T03:48:56.030Z,11.73
2018-07-26T03:51:27.534Z,13.07
2018-07-26T03:54:10.305Z,12.77
2018-07-26T03:56:49.824Z,11.97
2018-07-26T03:59:19.178Z,13.13
2018-07-26T04:01:48.422Z,12.97
2018-07-26T04:04:23.646Z,13.27
2018-07-26T04:06:58.319Z,12.83
2018-07-26T04:09:27.348Z,13.93
2018-07-26T04:11:59.329Z,14.10
2018-07-26T04:14:34.124Z,13.10
2018-07-26T04:17:04.133Z,13.47
2018-07-26T04:19:36.266Z,13.50
2018-07-26T04:22:11.639Z,12.80
2018-07-26T04:24:40.639Z,14.53
2018-07-26T04:27:12.979Z,13.77
2018-07-26T04:29:45.792Z,13.97
2018-07-26T04:32:16.830Z,14.53
2018-07-26T04:34:45.679Z,14.43
2018-07-26T04:37:21.055Z,14.43
2018-07-26T04:39:50.938Z,14.30
2018-07-26T04:42:19.920Z,14.37
2018-07-26T04:48:05.885Z,13.93
2018-07-26T04:50:51.902Z,14.20
2018-07-26T04:53:20.892Z,14.40
2018-07-26T04:55:49.816Z,13.57
2018-07-26T04:58:19.770Z,14.23
2018-07-26T05:00:54.656Z,14.20
2018-07-26T05:03:25.175Z,15.00
2018-07-26T05:06:00.451Z,14.90
2018-07-26T05:08:36.034Z,13.73
2018-07-26T05:11:10.823Z,14.43
2018-07-26T05:16:40.300Z,16.63
2018-07-26T05:22:05.015Z,16.23
2018-07-26T05:24:48.588Z,15.87
2018-07-26T05:27:17.539Z,15.67
2018-07-26T05:32:59.704Z,14.73
2018-07-26T05:35:28.651Z,16.07
2018-07-26T05:38:13.978Z,15.17
2018-07-26T05:40:42.903Z,16.13
2018-07-26T05:43:11.847Z,15.83
2018-07-26T05:45:40.673Z,15.57
2018-07-26T05:48:11.704Z,15.07
2018-07-26T05:51:00.841Z,16.43
2018-07-26T05:53:30.764Z,14.73
2018-07-26T05:56:06.102Z,14.67
2018-07-26T05:58:38.570Z,14.57
2018-07-26T06:01:25.582Z,14.47
2018-07-26T06:06:58.290Z,13.67
2018-07-26T06:09:27.226Z,15.10
2018-07-26T06:11:56.306Z,13.43
2018-07-26T06:14:25.173Z,12.83
2018-07-26T06:16:58.508Z,13.40
2018-07-26T06:19:31.191Z,12.53
2018-07-26T06:22:02.184Z,12.23
2018-07-26T06:24:33.165Z,12.73
2018-07-26T06:27:02.186Z,12.50
2018-07-26T06:29:39.090Z,11.70
2018-07-26T06:32:11.748Z,12.40
2018-07-26T06:34:42.172Z,12.57
2018-07-26T06:37:11.165Z,11.67
2018-07-26T06:39:40.090Z,11.20
2018-07-26T06:42:21.103Z,10.90
2018-07-26T06:45:01.786Z,11.07
2018-07-26T06:47:55.501Z,10.93
2018-07-26T06:50:25.456Z,10.00
2018-07-26T06:53:05.094Z,9.93
2018-07-26T06:55:40.945Z,10.40
2018-07-26T06:58:21.352Z,9.73
2018-07-26T07:00:50.377Z,9.70
2018-07-26T07:03:19.338Z,9.80
2018-07-26T07:05:51.648Z,9.77
2018-07-26T07:08:25.470Z,10.27
2018-07-26T07:11:02.600Z,9.00
2018-07-26T07:13:38.751Z,9.20
2018-07-26T07:16:09.664Z,8.27
2018-07-26T07:18:52.744Z,7.70
2018-07-26T07:21:31.636Z,8.20
2018-07-26T07:24:04.056Z,9.30
2018-07-26T07:26:42.721Z,8.60
2018-07-26T07:29:23.799Z,8.50
2018-07-26T07:31:58.815Z,8.50
2018-07-26T07:34:27.681Z,7.53
2018-07-26T07:36:58.414Z,7.47
2018-07-26T07:39:27.306Z,7.37
2018-07-26T07:42:03.602Z,6.83
2018-07-26T07:44:32.570Z,7.17
2018-07-26T07:47:03.521Z,6.53
2018-07-26T07:49:34.631Z,6.73
2018-07-26T07:52:08.348Z,6.40
2018-07-26T07:54:37.230Z,6.90
2018-07-26T07:57:18.042Z,6.50
2018-07-26T07:59:47.079Z,6.60
2018-07-26T08:02:16.036Z,6.63
2018-07-26T08:04:46.020Z,6.67
2018-07-26T08:07:29.848Z,7.43
2018-07-26T08:10:16.790Z,6.60
2018-07-26T08:13:02.655Z,8.37
2018-07-26T08:15:33.657Z,8.20
2018-07-26T08:18:07.048Z,7.93
2018-07-26T08:20:36.091Z,7.90
2018-07-26T08:23:06.044Z,7.33
2018-07-26T08:25:35.012Z,8.10
2018-07-26T08:28:04.053Z,7.73
2018-07-26T08:30:37.523Z,7.13
2018-07-26T08:33:24.664Z,7.67
2018-07-26T08:35:57.847Z,6.87
2018-07-26T08:38:26.837Z,6.97
2018-07-26T08:41:01.385Z,6.87
2018-07-26T08:43:30.220Z,7.10
2018-07-26T08:45:59.136Z,6.13
2018-07-26T08:48:29.110Z,6.30
2018-07-26T08:51:03.747Z,6.30
2018-07-26T08:53:33.718Z,5.10
2018-07-26T08:56:03.697Z,5.40
2018-07-26T08:58:34.624Z,5.40
2018-07-26T09:01:04.950Z,5.00
2018-07-26T09:03:44.840Z,4.90
2018-07-26T09:06:27.408Z,4.67
2018-07-26T09:09:00.644Z,4.90
2018-07-26T09:11:37.861Z,5.03
2018-07-26T09:17:20.573Z,4.83
2018-07-26T09:22:43.528Z,4.83
2018-07-26T09:25:24.376Z,5.30
2018-07-26T09:27:53.510Z,5.30
2018-07-26T09:30:24.692Z,5.43
2018-07-26T09:32:59.555Z,5.07
2018-07-26T09:35:41.742Z,5.20
2018-07-26T09:38:24.817Z,4.80
2018-07-26T09:41:00.516Z,5.00
2018-07-26T09:43:31.410Z,5.00
2018-07-26T09:46:04.939Z,5.47
2018-07-26T09:48:33.919Z,5.07
2018-07-26T09:51:06.576Z,5.20
2018-07-26T09:53:47.476Z,5.10
2018-07-26T09:56:22.144Z,5.27
2018-07-26T09:58:52.080Z,5.27
2018-07-26T10:01:33.240Z,5.77
2018-07-26T10:04:06.271Z,5.73
2018-07-26T10:06:36.213Z,5.40
2018-07-26T10:09:09.757Z,4.57
2018-07-26T10:11:43.530Z,5.03
2018-07-26T10:14:18.900Z,4.60
2018-07-26T10:16:47.793Z,4.90
2018-07-26T10:19:20.276Z,5.00
2018-07-26T10:21:49.185Z,4.43
2018-07-26T10:24:36.968Z,4.53
2018-07-26T10:27:05.823Z,4.20
2018-07-26T10:29:42.249Z,3.53
2018-07-26T10:32:11.136Z,6.73
2018-07-26T10:34:43.710Z,4.80
2018-07-26T10:37:12.598Z,4.30
2018-07-26T10:39:41.541Z,3.73
2018-07-26T10:42:16.618Z,4.10
2018-07-26T10:44:45.830Z,4.43
2018-07-26T10:47:14.741Z,4.60
2018-07-26T10:49:43.762Z,4.17
2018-07-26T10:52:12.656Z,3.57
2018-07-26T10:54:41.533Z,4.17
2018-07-26T10:57:10.422Z,4.50
2018-07-26T10:59:42.789Z,4.30
2018-07-26T11:02:24.704Z,3.80
2018-07-26T11:04:53.612Z,4.30
2018-07-26T11:07:36.147Z,4.10
2018-07-26T11:10:08.743Z,3.57
2018-07-26T11:12:40.050Z,3.80
2018-07-26T11:15:41.303Z,3.60
2018-07-26T11:18:20.764Z,3.60
2018-07-26T11:20:49.745Z,3.80
2018-07-26T11:23:24.639Z,3.97
2018-07-26T11:26:04.363Z,4.13
2018-07-26T11:28:49.671Z,3.90
2018-07-26T11:31:19.648Z,3.80
2018-07-26T11:33:52.708Z,3.80
2018-07-26T11:36:28.460Z,3.40
2018-07-26T11:38:57.519Z,3.77
2018-07-26T11:41:27.498Z,3.80
2018-07-26T11:46:57.758Z,4.63
2018-07-26T11:49:26.692Z,4.80
2018-07-26T11:54:52.338Z,4.93
2018-07-26T11:57:26.335Z,5.47
2018-07-26T11:59:58.682Z,4.67
2018-07-26T12:02:35.947Z,5.30
2018-07-26T12:05:05.900Z,5.20
2018-07-26T12:07:36.860Z,5.10
2018-07-26T12:10:07.951Z,5.23
2018-07-26T12:12:36.877Z,5.00
2018-07-26T12:15:06.814Z,4.70
2018-07-26T12:17:41.703Z,5.30
2018-07-26T12:20:12.596Z,4.77
2018-07-26T12:22:41.544Z,4.80
2018-07-26T12:25:10.470Z,5.20
2018-07-26T12:27:41.671Z,4.90
2018-07-26T12:30:10.593Z,4.87
2018-07-26T12:32:49.290Z,4.97
2018-07-26T12:35:25.261Z,5.10
2018-07-26T12:37:54.150Z,4.77
2018-07-26T12:40:23.022Z,4.00
2018-07-26T12:42:55.339Z,4.67
2018-07-26T12:45:27.461Z,3.93
2018-07-26T12:47:57.395Z,4.27
2018-07-26T12:50:26.382Z,4.03
2018-07-26T12:53:05.211Z,3.97
2018-07-26T12:55:37.839Z,4.27
2018-07-26T12:58:25.000Z,4.20
2018-07-26T13:00:57.085Z,4.50
2018-07-26T13:03:37.595Z,3.90
2018-07-26T13:06:10.158Z,4.37
2018-07-26T13:08:41.829Z,4.30
2018-07-26T13:11:14.242Z,4.37
2018-07-26T13:13:53.497Z,4.37
2018-07-26T13:16:26.988Z,3.83
2018-07-26T13:18:57.089Z,4.10
2018-07-26T13:21:28.033Z,4.30
2018-07-26T13:23:56.988Z,4.07
2018-07-26T13:26:25.940Z,4.43
2018-07-26T13:28:55.206Z,4.03
2018-07-26T13:31:31.819Z,4.40
2018-07-26T13:34:01.785Z,5.03
2018-07-26T13:36:30.867Z,4.73
2018-07-26T13:39:01.952Z,4.30
2018-07-26T13:41:49.628Z,4.27
2018-07-26T13:44:26.248Z,4.60
2018-07-26T13:46:55.232Z,4.20
2018-07-26T13:49:25.171Z,4.10
2018-07-26T13:51:54.185Z,4.13
2018-07-26T13:54:23.162Z,3.73
2018-07-26T13:56:53.140Z,4.60
2018-07-26T13:59:23.492Z,4.13
2018-07-26T14:02:06.633Z,4.30
2018-07-26T14:04:38.033Z,4.03
2018-07-26T14:07:07.292Z,4.00
2018-07-26T14:09:36.330Z,4.17
2018-07-26T14:12:22.350Z,3.87
2018-07-26T14:14:51.418Z,3.47
2018-07-26T14:17:21.516Z,6.17
2018-07-26T14:19:50.560Z,3.43
2018-07-26T14:22:19.547Z,3.17
2018-07-26T14:24:57.625Z,4.30
2018-07-26T14:27:27.115Z,3.17
2018-07-26T14:29:58.648Z,3.40
2018-07-26T14:32:27.607Z,3.70
2018-07-26T14:34:57.594Z,3.47
2018-07-26T14:37:29.677Z,3.60
2018-07-26T14:40:05.316Z,4.20
2018-07-26T14:42:50.625Z,3.90
2018-07-26T14:45:34.764Z,3.50
2018-07-26T14:48:03.792Z,3.50
2018-07-26T14:50:32.964Z,2.90
2018-07-26T14:53:01.968Z,3.50
2018-07-26T14:55:31.880Z,5.03
2018-07-26T14:58:08.248Z,3.60
2018-07-26T15:00:37.495Z,3.00
2018-07-26T15:03:13.119Z,3.30
2018-07-26T15:05:54.844Z,3.20
2018-07-26T15:08:28.249Z,3.27
2018-07-26T15:10:58.188Z,3.37
2018-07-26T15:13:32.392Z,3.10
2018-07-26T15:16:01.282Z,3.47
2018-07-26T15:18:30.196Z,3.00
2018-07-26T15:21:06.365Z,3.17
2018-07-26T15:23:36.266Z,2.87
2018-07-26T15:26:11.523Z,3.00
2018-07-26T15:28:45.574Z,3.60
2018-07-26T15:31:16.890Z,3.17
2018-07-26T15:33:50.616Z,3.17
2018-07-26T15:36:23.402Z,3.17
2018-07-26T15:38:52.337Z,3.30
2018-07-26T15:41:21.393Z,3.20
2018-07-26T15:43:50.367Z,2.90
2018-07-26T15:46:19.344Z,3.30
2018-07-26T15:48:48.337Z,3.80
2018-07-26T15:51:19.384Z,2.97
2018-07-26T15:53:50.303Z,2.90
2018-07-26T15:56:30.074Z,2.50
2018-07-26T15:59:02.838Z,2.70
2018-07-26T16:01:31.830Z,2.40
2018-07-26T16:04:01.748Z,2.70
2018-07-26T16:06:32.727Z,2.90
2018-07-26T16:09:08.276Z,2.80
2018-07-26T16:11:42.746Z,2.73
2018-07-26T16:14:12.155Z,2.90
2018-07-26T16:16:41.516Z,2.57
2018-07-26T16:19:14.951Z,2.60
2018-07-26T16:21:53.356Z,3.20
2018-07-26T16:24:23.303Z,2.80
2018-07-26T16:26:54.046Z,2.70
2018-07-26T16:29:23.045Z,2.63
2018-07-26T16:31:55.845Z,2.50
2018-07-26T16:34:31.474Z,2.77
2018-07-26T16:37:02.797Z,3.10
2018-07-26T16:39:33.746Z,2.80
2018-07-26T16:42:08.354Z,2.97
2018-07-26T16:44:38.684Z,2.60
2018-07-26T16:47:07.674Z,3.20
2018-07-26T16:49:36.632Z,3.00
2018-07-26T16:52:05.554Z,2.70
2018-07-26T16:54:34.525Z,3.07
2018-07-26T16:57:03.438Z,2.70
2018-07-26T16:59:33.352Z,2.67
2018-07-26T17:02:03.224Z,2.20
2018-07-26T17:04:32.188Z,2.70
2018-07-26T17:07:17.174Z,2.67
2018-07-26T17:12:44.274Z,2.77
2018-07-26T17:15:17.754Z,2.80
2018-07-26T17:17:51.586Z,2.77
2018-07-26T17:20:22.547Z,2.97
2018-07-26T17:22:53.649Z,2.63
2018-07-26T17:25:25.507Z,3.00
2018-07-26T17:28:00.356Z,2.67
2018-07-26T17:30:31.329Z,2.60
2018-07-26T17:33:00.282Z,2.67
2018-07-26T17:35:30.217Z,2.90
2018-07-26T17:38:01.090Z,2.50
2018-07-26T17:40:34.877Z,2.97
2018-07-26T17:43:04.962Z,2.80
2018-07-26T17:45:35.139Z,3.30
2018-07-26T17:48:07.580Z,3.37
2018-07-26T17:50:40.461Z,2.50
2018-07-26T17:53:09.543Z,2.50
2018-07-26T17:55:39.040Z,2.60
2018-07-26T17:58:25.463Z,2.73
2018-07-26T18:00:58.277Z,2.53
2018-07-26T18:03:30.336Z,3.27
2018-07-26T18:06:01.275Z,3.60
2018-07-26T18:08:31.148Z,2.70
2018-07-26T18:11:02.143Z,2.60
2018-07-26T18:13:34.676Z,2.63
2018-07-26T18:16:03.620Z,2.60
2018-07-26T18:18:32.851Z,2.40
2018-07-26T18:21:05.639Z,2.50
2018-07-26T18:23:34.568Z,2.90
2018-07-26T18:26:13.955Z,2.60
2018-07-26T18:28:44.796Z,2.80
2018-07-26T18:31:18.471Z,2.90
2018-07-26T18:33:59.103Z,2.50
2018-07-26T18:36:30.058Z,3.17
2018-07-26T18:39:09.032Z,3.20
2018-07-26T18:41:43.078Z,2.87
2018-07-26T18:44:18.847Z,3.00
2018-07-26T18:46:49.772Z,2.83
2018-07-26T18:49:20.747Z,3.33
2018-07-26T18:51:49.623Z,3.30
2018-07-26T18:54:18.606Z,4.70
2018-07-26T18:56:48.638Z,5.40
2018-07-26T18:59:22.305Z,4.33
2018-07-26T19:01:55.636Z,3.90
2018-07-26T19:04:25.153Z,4.30
2018-07-26T19:06:57.564Z,3.67
2018-07-26T19:09:28.632Z,4.00
2018-07-26T19:12:01.911Z,3.63
2018-07-26T19:14:38.649Z,3.70
2018-07-26T19:17:11.936Z,3.67
2018-07-26T19:19:45.826Z,3.33
2018-07-26T19:22:18.660Z,3.30
2018-07-26T19:24:53.552Z,3.60
2018-07-26T19:27:23.536Z,3.67
2018-07-26T19:29:53.435Z,3.33
2018-07-26T19:32:22.512Z,3.60
2018-07-26T19:34:52.549Z,3.60
2018-07-26T19:37:22.510Z,3.63
2018-07-26T19:39:51.448Z,3.93
2018-07-26T19:42:24.863Z,4.10
2018-07-26T19:44:54.763Z,4.10
2018-07-26T19:47:27.830Z,3.50
2018-07-26T19:50:02.993Z,3.80
2018-07-26T19:52:37.644Z,3.90
2018-07-26T19:55:10.352Z,3.90
2018-07-26T19:57:41.388Z,4.00
2018-07-26T20:00:13.519Z,3.70
2018-07-26T20:02:46.068Z,3.87
2018-07-26T20:05:22.452Z,3.60
2018-07-26T20:07:52.527Z,3.80
2018-07-26T20:10:21.514Z,3.63
2018-07-26T20:12:58.051Z,4.10
2018-07-26T20:15:30.718Z,3.40
2018-07-26T20:18:02.788Z,3.30
2018-07-26T20:20:31.761Z,3.40
2018-07-26T20:23:11.560Z,3.60
2018-07-26T20:25:45.092Z,3.43
2018-07-26T20:28:15.706Z,3.23
2018-07-26T20:30:48.435Z,3.33
2018-07-26T20:33:18.403Z,3.53
2018-07-26T20:35:54.387Z,3.40
2018-07-26T20:38:27.070Z,3.70
2018-07-26T20:40:57.381Z,3.50
2018-07-26T20:43:26.258Z,3.23
2018-07-26T20:45:55.349Z,3.63
2018-07-26T20:48:32.331Z,3.30
2018-07-26T20:51:07.610Z,3.97
2018-07-26T20:53:37.919Z,3.70
2018-07-26T20:56:09.397Z,3.80
2018-07-26T20:58:39.442Z,3.20
2018-07-26T21:01:09.596Z,3.63
2018-07-26T21:03:38.857Z,3.60
2018-07-26T21:06:07.852Z,3.70
2018-07-26T21:08:36.910Z,3.60
2018-07-26T21:11:07.250Z,3.60
2018-07-26T21:13:48.205Z,3.80
2018-07-26T21:16:17.757Z,3.63
2018-07-26T21:18:59.650Z,3.97
2018-07-26T21:21:36.394Z,3.47
2018-07-26T21:24:06.447Z,3.53
2018-07-26T21:26:35.378Z,4.43
2018-07-26T21:29:11.605Z,3.90
2018-07-26T21:31:43.783Z,4.23
2018-07-26T21:34:16.689Z,4.07
2018-07-26T21:36:46.920Z,4.10
2018-07-26T21:39:18.063Z,3.83
2018-07-26T21:41:47.573Z,4.13
2018-07-26T21:44:17.485Z,3.50
2018-07-26T21:46:50.747Z,3.87
2018-07-26T21:49:19.917Z,3.83
2018-07-26T21:51:53.413Z,3.37
2018-07-26T21:54:22.479Z,3.70
2018-07-26T21:56:58.030Z,4.00
2018-07-26T21:59:27.031Z,3.67
2018-07-26T22:02:00.898Z,3.33
2018-07-26T22:04:35.683Z,3.53
2018-07-26T22:07:08.770Z,3.80
2018-07-26T22:09:38.296Z,4.00
2018-07-26T22:12:15.093Z,4.00
2018-07-26T22:14:44.103Z,3.30
2018-07-26T22:17:13.500Z,3.53
2018-07-26T22:19:42.432Z,3.67
2018-07-26T22:22:11.432Z,3.57
2018-07-26T22:24:40.296Z,3.60
2018-07-26T22:27:09.233Z,3.80
2018-07-26T22:29:44.200Z,3.53
2018-07-26T22:32:22.248Z,3.67
2018-07-26T22:34:51.164Z,3.77
2018-07-26T22:37:26.798Z,3.70
2018-07-26T22:39:55.774Z,3.33
2018-07-26T22:42:24.635Z,3.30
2018-07-26T22:45:03.691Z,3.60
2018-07-26T22:47:32.566Z,3.40
2018-07-26T22:50:01.426Z,3.37
2018-07-26T22:52:30.541Z,3.67
2018-07-26T22:54:59.430Z,3.37
2018-07-26T22:57:28.313Z,3.53
2018-07-26T22:59:57.155Z,3.70
2018-07-26T23:02:26.066Z,3.50
2018-07-26T23:07:52.203Z,3.50
2018-07-26T23:10:21.320Z,3.40
2018-07-26T23:12:50.229Z,3.67
2018-07-26T23:15:19.141Z,3.13
2018-07-26T23:17:47.995Z,3.63
2018-07-26T23:26:04.722Z,3.50
2018-07-26T23:28:33.632Z,3.20
2018-07-26T23:31:06.907Z,3.53
2018-07-26T23:33:35.977Z,3.70
2018-07-26T23:36:04.923Z,3.53
2018-07-26T23:38:33.816Z,3.53
2018-07-26T23:41:02.714Z,3.60
2018-07-26T23:43:49.868Z,3.77
2018-07-26T23:46:18.803Z,3.37
2018-07-26T23:48:47.736Z,3.20
2018-07-26T23:51:16.630Z,3.60
2018-07-26T23:54:05.763Z,3.70
2018-07-26T23:56:39.492Z,3.27
2018-07-26T23:59:08.375Z,3.70
